No se requiere un especial cuidado respecto a la situación meteorológica.   -   No hay avisos

Informes METAR

 

LEZL - Sevilla, Spain
Distancia de la estación: ENE 8km
Actualización: 25/05/2018 18:30
Parcialmente nuboso
Parcialmente nuboso
 Viento de SO
Viento: SO 24 km/h
Temperatura: 22°C
Rocío: 11°C
Humedad: 50%
Barómetro: 1012 hPa
Nubes: Parcialmente nuboso
Visibilidad: 10 km
Detalles de las nubes: Parcialmente nuboso 1372 m
2018/05/25 16:30 LEZL 251630Z 23013KT 200V260 9999 SCT045 22/11 Q1012 NOSIG
LEMO - Morón, Spain
Distancia de la estación: SE 43km
Actualización: 25/05/2018 18:00
Parcialmente nuboso
Parcialmente nuboso
 Viento de OSO
Viento: OSO 19 km/h
Temperatura: 22°C
Rocío: 12°C
Humedad: 53%
Barómetro: 1012 hPa
Nubes: Parcialmente nuboso
Visibilidad: 10 km
Detalles de las nubes: Parcialmente nuboso 1219 m
Parcialmente nuboso 1615 m
2018/05/25 16:00 LEMO 251600Z 24010KT 190V290 9999 SCT040 SCT053 22/12 Q1012 NOSIG
LEJR - Jeréz, Spain
Distancia de la estación: S 71km
Actualización: 25/05/2018 18:30
Poco nuboso
Poco nuboso
 Viento de SSO
Viento: SSO 22 km/h
Temperatura: 22°C
Rocío: 12°C
Humedad: 53%
Barómetro: 1013 hPa
Nubes: Poco nuboso
Visibilidad: 10 km
Detalles de las nubes: Poco nuboso 1067 m
2018/05/25 16:30 LEJR 251630Z 21012KT 9999 FEW035 22/12 Q1013
 
LERT - Rota, Spain
Distancia de la estación: SSO 89km
Actualización: 25/05/2018 18:00
Muy nuboso
Muy nuboso
 Viento de SSO
Viento: SSO 19 km/h
Temperatura: 19°C
Rocío: 14°C
Humedad: 73%
Barómetro: 1013 hPa
Nubes: Muy nuboso
Visibilidad: 10 km
Detalles de las nubes: Muy nuboso 823 m
2018/05/25 16:00 LERT 251600Z 20010KT 170V230 9999 BKN027 19/14 Q1013 NOSIG
LEMG - Málaga, Spain
Distancia de la estación: ESE 157km
Actualización: 25/05/2018 18:30
Poco nuboso
Poco nuboso
 Viento de S
Viento: S 19 km/h
Temperatura: 24°C
Rocío: 11°C
Humedad: 44%
Barómetro: 1011 hPa
Nubes: Poco nuboso
Visibilidad: 10 km
Detalles de las nubes: Poco nuboso 1524 m
2018/05/25 16:30 LEMG 251630Z 18010KT 140V240 9999 FEW050 24/11 Q1011 NOSIG
LEBA - Córdoba, Spain
Distancia de la estación: ENE 115km
Actualización: 25/05/2018 18:30
Poco nuboso
Poco nuboso
 Viento de O
Viento: O 17 km/h
Temperatura: 23°C
Rocío: 10°C
Humedad: 44%
Barómetro: 1012 hPa
Nubes: Poco nuboso
Visibilidad: 10 km
Detalles de las nubes: Poco nuboso 1372 m
2018/05/25 16:30 LEBA 251630Z 27009KT 240V300 9999 FEW045 23/10 Q1012
 
LEGR - Granada, Spain
Distancia de la estación: E 198km
Actualización: 25/05/2018 18:30
Parcialmente nuboso
Parcialmente nuboso
 Viento de ONO
Viento: ONO 20 km/h
Temperatura: 22°C
Rocío: 9°C
Humedad: 44%
Barómetro: 1013 hPa
Nubes: Parcialmente nuboso
Visibilidad: 10 km
Detalles de las nubes: Poco nuboso 1067 m
Parcialmente nuboso 1829 m
2018/05/25 16:30 LEGR 251630Z 30011KT 250V340 9999 FEW035 SCT060 22/09 Q1013
LEAM - Almería, Spain
Distancia de la estación: E 326km
Actualización: 25/05/2018 18:30
Despejado
Despejado
 Viento de SO
Viento: SO 28 km/h
Temperatura: 21°C
Rocío: 16°C
Humedad: 73%
Barómetro: 1011 hPa
Resumen: Despejado
Visibilidad: mayor de 10 km
2018/05/25 16:30 LEAM 251630Z 22015KT CAVOK 21/16 Q1011
LEMD - Madrid/Barajas, Spain
Distancia de la estación: NNE 402km
Actualización: 25/05/2018 18:30
Parcialmente nuboso
Parcialmente nuboso
 Viento de ESE
Viento: ESE 7 km/h
Temperatura: 20°C
Rocío: 12°C
Humedad: 60%
Barómetro: 1012 hPa
Nubes: Parcialmente nuboso
Visibilidad: 10 km
Detalles de las nubes: Poco nuboso 914 m
Parcialmente nuboso 1372 m
2018/05/25 16:30 LEMD 251630Z 12004KT 070V150 9999 FEW030TCU SCT045 20/12 Q1012 NOSIG
 
LEVD - Valladolid, Spain
Distancia de la estación: N 492km
Actualización: 25/05/2018 18:39
Parcialmente nuboso
Parcialmente nuboso
 Viento de ENE
Viento: ENE 19 km/h
Temperatura: 14°C
Rocío: 11°C
Humedad: 82%
Barómetro: 1013 hPa
Nubes: Parcialmente nuboso
Visibilidad: 10 km
Detalles de las nubes: Poco nuboso 518 m
Parcialmente nuboso 914 m
Parcialmente nuboso 2134 m
2018/05/25 16:39 LEVD 251639Z 07010KT 9999 FEW017 SCT030 SCT070TCU 14/11 Q1013
LEBL - Barcelona, Spain
Distancia de la estación: NE 816km
Actualización: 25/05/2018 18:30
Despejado
Despejado
 Viento de ENE
Viento: ENE 35 km/h
Temperatura: 23°C
Rocío: 13°C
Humedad: 53%
Barómetro: 1013 hPa
Resumen: Despejado
Visibilidad: mayor de 10 km
2018/05/25 16:30 LEBL 251630Z 07019KT CAVOK 23/13 Q1013 NOSIG
LEVC - Valencia, Spain
Distancia de la estación: ENE 535km
Actualización: 01/01/1970 01:00
NOT Current
unable to load LEVC data RC=404 Not Found
unable to load LEVC data RC=404 Not Found